Time;durP1;ratioP1;P1;durP2;ratioP2;P2;SDS_P1;SDS_P2;PMS_P1;PMS_P2;Temp;Humidity;BMP_temperature;BMP_pressure;BME280_temperature;BME280_humidity;BME280_pressure;Samples;Min_cycle;Max_cycle;Signal;HPM_P1;HPM_P2
2022/02/05 00:01:42;;;;;;;1.08;0.98;;;4.80;99.90;;;;;;5052279;28;20182;-59
2022/02/05 00:04:12;;;;;;;0.90;0.90;;;4.70;99.90;;;;;;5052875;28;20519;-59
2022/02/05 00:06:41;;;;;;;2.65;1.08;;;4.80;99.90;;;;;;5053351;28;20190;-55
2022/02/05 00:12:04;;;;;;;1.70;1.37;;;4.80;99.90;;;;;;5053268;28;20206;-59
2022/02/05 00:38:26;;;;;;;2.72;1.00;;;5.00;99.90;;;;;;5065540;28;20189;-60
2022/02/05 00:41:11;;;;;;;1.00;0.90;;;5.00;99.90;;;;;;5050691;28;20178;-59
2022/02/05 00:43:36;;;;;;;1.02;0.80;;;5.10;99.90;;;;;;5056623;28;20239;-59
2022/02/05 00:46:02;;;;;;;1.30;1.00;;;5.10;99.90;;;;;;5051840;28;20660;-60
2022/02/05 00:48:27;;;;;;;1.00;0.90;;;5.10;99.90;;;;;;5052103;28;20231;-59
2022/02/05 00:51:08;;;;;;;3.17;1.10;;;5.10;99.90;;;;;;5056334;28;20568;-58
2022/02/05 00:53:37;;;;;;;1.92;1.20;;;5.10;99.90;;;;;;5049756;28;20267;-59
2022/02/05 00:56:36;;;;;;;1.98;1.00;;;5.20;99.90;;;;;;5065232;28;20178;-59
2022/02/05 00:58:48;;;;;;;0.90;0.90;;;5.30;99.90;;;;;;5053761;28;20278;-58
2022/02/05 01:01:14;;;;;;;1.20;1.10;;;5.30;99.90;;;;;;5053635;28;20634;-59
2022/02/05 01:03:39;;;;;;;1.23;0.90;;;5.40;99.90;;;;;;5050032;28;20194;-59
2022/02/05 01:06:06;;;;;;;1.33;1.23;;;5.40;99.90;;;;;;5063408;28;20182;-58
2022/02/05 01:08:33;;;;;;;1.27;1.17;;;5.40;99.90;;;;;;5050932;28;20179;-60
2022/02/05 01:10:59;;;;;;;0.80;0.80;;;5.40;99.90;;;;;;5065454;28;20257;-58
2022/02/05 01:13:26;;;;;;;1.57;0.97;;;5.30;99.90;;;;;;5049472;28;20190;-59
2022/02/05 01:16:03;;;;;;;0.88;0.80;;;5.40;99.90;;;;;;5052105;28;20187;-59
2022/02/05 01:18:29;;;;;;;1.48;1.10;;;5.40;99.90;;;;;;5049534;28;20231;-58
2022/02/05 01:23:52;;;;;;;1.20;1.10;;;5.40;99.90;;;;;;5055592;28;20549;-57
2022/02/05 01:28:43;;;;;;;1.10;1.00;;;5.40;99.90;;;;;;5049695;28;20175;-60
2022/02/05 01:31:09;;;;;;;1.38;1.15;;;5.30;99.90;;;;;;5059067;28;20266;-59
2022/02/05 01:34:17;;;;;;;2.00;1.30;;;5.40;99.90;;;;;;5060957;28;20178;-60
2022/02/05 01:58:33;;;;;;;2.17;1.70;;;5.20;99.90;;;;;;5008191;28;20854;-59
2022/02/05 02:07:25;;;;;;;1.20;1.10;;;5.10;99.90;;;;;;5049378;28;20260;-61
2022/02/05 02:12:02;;;;;;;1.40;1.30;;;5.10;99.90;;;;;;5060850;28;20954;-62
2022/02/05 02:22:51;;;;;;;1.27;1.10;;;5.10;99.90;;;;;;5059973;28;20189;-61
2022/02/05 02:30:59;;;;;;;1.95;1.73;;;5.10;99.90;;;;;;5027509;28;20272;-61
2022/02/05 02:33:32;;;;;;;2.58;1.60;;;5.10;99.90;;;;;;5029497;28;20185;-59
2022/02/05 02:35:58;;;;;;;5.50;2.03;;;5.10;99.90;;;;;;5028171;28;20213;-62
2022/02/05 02:38:33;;;;;;;1.97;1.77;;;5.10;99.90;;;;;;5026045;28;20179;-60
2022/02/05 02:41:07;;;;;;;3.00;1.80;;;5.10;99.90;;;;;;5026827;28;20174;-61
2022/02/05 02:43:34;;;;;;;2.00;1.80;;;5.00;99.90;;;;;;5028156;28;20167;-60
2022/02/05 02:46:00;;;;;;;2.75;2.05;;;5.00;99.90;;;;;;5026640;28;20278;-57
2022/02/05 02:48:26;;;;;;;2.57;1.97;;;5.10;99.90;;;;;;5027786;28;20295;-61
2022/02/05 02:56:53;;;;;;;2.30;1.90;;;4.90;99.90;;;;;;5027473;28;20178;-60
2022/02/05 02:59:26;;;;;;;3.38;1.95;;;4.90;99.90;;;;;;5025710;28;20254;-58
2022/02/05 03:01:59;;;;;;;2.53;2.00;;;4.80;99.90;;;;;;5041078;28;20700;-60
2022/02/05 03:04:25;;;;;;;4.00;2.13;;;4.70;99.90;;;;;;5047575;28;20620;-61
2022/02/05 03:06:50;;;;;;;2.20;1.77;;;4.60;99.90;;;;;;5049678;28;20178;-61
2022/02/05 03:09:16;;;;;;;3.00;1.90;;;4.60;99.90;;;;;;5048359;28;20193;-60
2022/02/05 03:11:42;;;;;;;1.90;1.60;;;4.50;99.90;;;;;;5049642;28;20233;-61
2022/02/05 03:14:07;;;;;;;1.87;1.77;;;4.40;99.90;;;;;;5049307;28;20648;-61
2022/02/05 03:16:36;;;;;;;2.63;2.17;;;4.40;99.90;;;;;;5049001;28;20183;-60
2022/02/05 03:19:10;;;;;;;2.67;2.47;;;4.40;99.90;;;;;;5049639;28;20284;-60
2022/02/05 03:21:37;;;;;;;3.80;2.05;;;4.40;99.90;;;;;;5046298;28;20187;-61
2022/02/05 03:24:06;;;;;;;2.53;1.85;;;4.40;99.90;;;;;;5049580;28;20197;-60
2022/02/05 03:26:34;;;;;;;1.80;1.70;;;4.40;99.90;;;;;;5046128;28;20747;-60
2022/02/05 03:29:00;;;;;;;2.15;1.95;;;4.40;99.90;;;;;;5062299;28;20203;-57
2022/02/05 03:31:26;;;;;;;3.00;2.30;;;4.40;99.90;;;;;;5053206;28;20202;-60
2022/02/05 03:33:51;;;;;;;2.40;2.10;;;4.40;99.90;;;;;;5054884;28;20599;-60
2022/02/05 03:36:17;;;;;;;2.67;2.10;;;4.50;99.90;;;;;;5052048;28;20205;-61
2022/02/05 03:38:42;;;;;;;5.13;2.27;;;4.50;99.90;;;;;;5055124;28;20185;-61
2022/02/05 03:41:08;;;;;;;4.63;2.30;;;4.50;99.90;;;;;;5052395;28;20189;-60
2022/02/05 03:43:33;;;;;;;3.73;2.40;;;4.50;99.90;;;;;;5048176;28;20186;-60
2022/02/05 03:45:59;;;;;;;2.83;2.03;;;4.40;99.90;;;;;;5055115;28;20185;-61
2022/02/05 03:48:25;;;;;;;4.53;2.30;;;4.40;99.90;;;;;;5049641;28;20178;-61
2022/02/05 03:50:50;;;;;;;3.90;2.10;;;4.30;99.90;;;;;;5047211;28;20212;-58
2022/02/05 03:53:17;;;;;;;3.10;2.50;;;4.30;99.90;;;;;;5056185;28;20213;-60
2022/02/05 03:55:45;;;;;;;3.15;2.25;;;4.30;99.90;;;;;;5051539;28;20178;-60
2022/02/05 03:58:11;;;;;;;3.50;2.67;;;4.50;99.90;;;;;;5056408;28;20185;-60
2022/02/05 04:00:37;;;;;;;3.17;2.60;;;4.50;99.90;;;;;;5048980;28;20194;-60
2022/02/05 04:03:03;;;;;;;4.63;2.23;;;4.50;99.90;;;;;;5049941;28;20524;-60
2022/02/05 04:05:28;;;;;;;2.77;2.10;;;4.60;99.90;;;;;;5056141;28;20597;-60
2022/02/05 04:07:55;;;;;;;3.80;2.60;;;4.60;99.90;;;;;;5047389;28;20179;-59
2022/02/05 04:10:27;;;;;;;4.30;2.90;;;4.50;99.90;;;;;;5048091;28;20206;-60
2022/02/05 04:15:59;;;;;;;2.50;2.30;;;4.50;99.90;;;;;;5050472;28;20185;-60
2022/02/05 04:18:25;;;;;;;2.65;2.35;;;4.60;99.90;;;;;;5052710;28;20215;-61
2022/02/05 04:20:50;;;;;;;3.17;2.40;;;4.50;99.90;;;;;;5053158;28;20174;-61
2022/02/05 04:23:16;;;;;;;3.90;2.87;;;4.50;99.90;;;;;;5057585;28;20440;-61
2022/02/05 04:25:42;;;;;;;2.35;2.20;;;4.50;99.90;;;;;;5054813;28;20276;-59
2022/02/05 04:28:09;;;;;;;2.70;2.40;;;4.50;99.90;;;;;;5056311;28;20636;-61
2022/02/05 04:30:35;;;;;;;4.43;3.00;;;4.50;99.90;;;;;;5058301;28;20198;-61
2022/02/05 04:33:01;;;;;;;3.00;2.70;;;4.60;99.90;;;;;;5068519;28;20582;-60
2022/02/05 04:35:26;;;;;;;2.63;2.37;;;4.60;99.90;;;;;;5058852;28;20174;-59
2022/02/05 04:37:55;;;;;;;3.00;2.60;;;4.60;99.90;;;;;;5057470;28;20185;-59
2022/02/05 04:45:39;;;;;;;5.38;3.10;;;4.70;99.90;;;;;;5052136;28;20186;-54
2022/02/05 04:48:37;;;;;;;4.28;3.15;;;4.70;99.90;;;;;;5059645;28;20180;-59
2022/02/05 04:51:15;;;;;;;5.05;2.88;;;4.80;99.90;;;;;;5060657;28;20236;-60
2022/02/05 05:01:38;;;;;;;3.55;2.97;;;4.90;99.90;;;;;;5052569;28;20518;-60
2022/02/05 05:20:14;;;;;;;3.75;2.88;;;4.90;99.90;;;;;;5009517;28;20496;-60
2022/02/05 05:22:40;;;;;;;3.08;2.65;;;4.90;99.90;;;;;;5049701;28;20205;-59
2022/02/05 05:25:06;;;;;;;2.83;2.63;;;4.90;99.90;;;;;;5054345;28;20214;-60
2022/02/05 05:27:32;;;;;;;6.20;3.10;;;4.90;99.90;;;;;;5052634;28;20174;-60
2022/02/05 05:29:58;;;;;;;5.00;3.03;;;4.90;99.90;;;;;;5059884;28;20837;-61
2022/02/05 05:32:23;;;;;;;3.73;3.30;;;5.00;99.90;;;;;;5051433;28;20445;-59
2022/02/05 05:34:49;;;;;;;3.87;3.03;;;5.00;99.90;;;;;;5052206;28;20171;-60
2022/02/05 05:37:18;;;;;;;3.07;2.77;;;5.00;99.90;;;;;;5053599;28;21005;-59
2022/02/05 05:39:45;;;;;;;5.32;3.63;;;4.90;99.90;;;;;;5051281;28;20183;-59
2022/02/05 05:42:15;;;;;;;5.10;2.90;;;4.90;99.90;;;;;;5065251;28;20540;-59
2022/02/05 05:50:01;;;;;;;3.45;3.15;;;4.80;99.90;;;;;;5043873;28;20186;-58
2022/02/05 05:52:27;;;;;;;4.35;3.15;;;4.70;99.90;;;;;;5051361;28;20309;-57
2022/02/05 05:54:53;;;;;;;6.82;3.75;;;4.60;99.90;;;;;;5050703;28;20621;-58
2022/02/05 05:57:19;;;;;;;3.53;3.10;;;4.50;99.90;;;;;;5050721;28;20180;-54
2022/02/05 05:59:45;;;;;;;5.70;3.37;;;4.50;99.90;;;;;;5051021;28;20424;-59
2022/02/05 06:02:11;;;;;;;3.93;3.10;;;4.40;99.90;;;;;;5050226;28;20178;-58
2022/02/05 06:04:37;;;;;;;4.90;3.73;;;4.40;99.90;;;;;;5055406;28;20420;-58
2022/02/05 06:07:03;;;;;;;3.83;3.45;;;4.40;99.90;;;;;;5049263;28;20194;-59
2022/02/05 06:09:29;;;;;;;3.97;3.55;;;4.40;99.90;;;;;;5050955;28;20189;-57
2022/02/05 06:11:55;;;;;;;4.18;3.78;;;4.30;99.90;;;;;;5049770;28;20340;-60
2022/02/05 06:14:24;;;;;;;4.97;3.40;;;4.30;99.90;;;;;;5049760;28;20641;-60
2022/02/05 06:16:57;;;;;;;4.10;3.70;;;4.30;99.90;;;;;;5051221;28;20941;-58
2022/02/05 06:19:22;;;;;;;3.88;3.47;;;4.20;99.90;;;;;;5050027;28;20186;-58
2022/02/05 06:21:48;;;;;;;4.00;3.60;;;4.20;99.90;;;;;;5050384;28;20711;-58
2022/02/05 06:24:14;;;;;;;3.77;3.27;;;4.30;99.90;;;;;;5049605;28;20190;-61
2022/02/05 06:26:39;;;;;;;4.47;4.07;;;4.30;99.90;;;;;;5054524;28;20218;-58
2022/02/05 06:29:05;;;;;;;4.40;3.70;;;4.20;99.90;;;;;;5049707;28;20476;-60
2022/02/05 06:31:30;;;;;;;3.60;3.30;;;4.10;99.90;;;;;;5050613;28;20275;-59
2022/02/05 06:33:56;;;;;;;5.00;3.50;;;4.20;99.90;;;;;;5051936;28;20263;-60
2022/02/05 06:36:22;;;;;;;5.17;3.27;;;4.40;99.90;;;;;;5055975;28;20175;-58
2022/02/05 06:38:48;;;;;;;4.20;3.10;;;4.40;99.90;;;;;;5049260;28;20451;-60
2022/02/05 06:41:14;;;;;;;4.82;3.55;;;4.50;99.90;;;;;;5052253;28;20170;-60
2022/02/05 06:43:40;;;;;;;4.65;3.70;;;4.50;99.90;;;;;;5059329;28;20320;-57
2022/02/05 06:46:05;;;;;;;4.07;3.27;;;4.60;99.90;;;;;;5052581;28;20617;-57
2022/02/05 06:48:31;;;;;;;3.90;3.50;;;4.60;99.90;;;;;;5052063;28;20187;-54
2022/02/05 06:50:57;;;;;;;4.73;3.37;;;4.60;99.90;;;;;;5051058;28;20293;-57
2022/02/05 06:53:22;;;;;;;4.50;3.17;;;4.70;99.90;;;;;;5049056;28;20221;-59
2022/02/05 06:55:48;;;;;;;4.30;3.90;;;4.70;99.90;;;;;;5046630;28;20182;-58
2022/02/05 06:58:13;;;;;;;3.83;3.30;;;4.80;99.90;;;;;;5051937;28;20181;-58
2022/02/05 07:00:39;;;;;;;4.10;3.70;;;4.90;99.90;;;;;;5048437;28;20218;-59
2022/02/05 07:03:05;;;;;;;4.07;3.50;;;4.90;99.90;;;;;;5051222;28;20189;-57
2022/02/05 07:05:30;;;;;;;4.47;4.07;;;4.90;99.90;;;;;;5049641;28;20243;-56
2022/02/05 07:07:56;;;;;;;3.50;3.20;;;4.90;99.90;;;;;;5058712;28;20182;-57
2022/02/05 07:10:24;;;;;;;4.32;3.53;;;5.00;99.90;;;;;;5043933;28;20201;-57
2022/02/05 07:13:09;;;;;;;3.50;3.20;;;5.10;99.90;;;;;;5041225;28;20720;-60
2022/02/05 07:15:39;;;;;;;3.65;3.03;;;5.10;99.90;;;;;;5040113;28;20225;-60
2022/02/05 07:21:03;;;;;;;4.80;3.47;;;5.10;99.90;;;;;;5020435;28;20268;-58
2022/02/05 07:31:29;;;;;;;4.32;3.40;;;5.20;99.90;;;;;;5041409;28;21078;-60
2022/02/05 07:33:55;;;;;;;4.03;3.57;;;5.10;99.90;;;;;;5045994;28;20183;-59
2022/02/05 07:36:20;;;;;;;3.93;3.53;;;5.20;99.90;;;;;;5052548;28;20232;-59
2022/02/05 07:38:47;;;;;;;4.80;4.00;;;5.20;99.90;;;;;;5054478;28;20177;-59
2022/02/05 07:41:13;;;;;;;4.57;4.18;;;5.20;99.90;;;;;;5051251;28;20193;-58
2022/02/05 07:43:39;;;;;;;3.70;3.40;;;5.30;99.90;;;;;;5041253;28;20186;-58
2022/02/05 07:46:06;;;;;;;5.23;3.60;;;5.30;99.90;;;;;;5053725;28;20744;-59
2022/02/05 07:48:33;;;;;;;4.00;3.70;;;5.30;99.90;;;;;;5041611;28;20539;-58
2022/02/05 07:51:03;;;;;;;4.75;4.30;;;5.40;99.90;;;;;;5040686;28;20233;-59
2022/02/05 07:53:30;;;;;;;5.60;3.45;;;5.40;99.90;;;;;;5046245;28;20325;-59
2022/02/05 07:55:55;;;;;;;4.00;3.67;;;5.40;99.90;;;;;;5058499;28;20190;-59
2022/02/05 07:58:21;;;;;;;4.50;4.10;;;5.40;99.90;;;;;;5050705;28;21126;-59
2022/02/05 08:00:47;;;;;;;5.37;3.70;;;5.40;99.90;;;;;;5056414;28;20196;-60
2022/02/05 08:03:13;;;;;;;4.97;3.90;;;5.40;99.90;;;;;;5054208;28;20184;-60
2022/02/05 08:05:39;;;;;;;5.50;3.80;;;5.40;99.90;;;;;;5040919;28;20189;-56
2022/02/05 08:08:09;;;;;;;5.67;4.20;;;5.40;99.90;;;;;;5046059;28;20217;-58
2022/02/05 08:10:38;;;;;;;3.97;3.58;;;5.50;99.90;;;;;;5047998;28;20213;-59
2022/02/05 08:13:04;;;;;;;4.03;3.60;;;5.50;99.90;;;;;;5051954;28;20179;-59
2022/02/05 08:15:31;;;;;;;3.87;3.57;;;5.60;99.90;;;;;;5048776;28;20176;-59
2022/02/05 08:17:59;;;;;;;3.88;3.47;;;5.50;99.90;;;;;;5052419;28;20179;-57
2022/02/05 08:20:24;;;;;;;7.22;4.00;;;5.60;99.90;;;;;;5049976;28;20301;-59
2022/02/05 08:22:51;;;;;;;4.10;3.70;;;5.60;99.90;;;;;;5050814;28;20257;-61
2022/02/05 08:25:17;;;;;;;4.20;3.90;;;5.60;99.90;;;;;;5048522;28;20265;-59
2022/02/05 08:27:43;;;;;;;3.67;3.33;;;5.60;99.90;;;;;;5054338;28;20186;-58
2022/02/05 08:30:11;;;;;;;4.67;3.77;;;5.70;99.90;;;;;;5053961;28;20644;-58
2022/02/05 08:32:37;;;;;;;6.07;3.75;;;5.80;99.90;;;;;;5054681;28;20424;-53
2022/02/05 08:35:05;;;;;;;3.90;3.50;;;5.90;99.50;;;;;;5049808;28;20186;-59
2022/02/05 08:37:35;;;;;;;3.38;3.03;;;5.90;99.40;;;;;;5046954;28;20181;-60
2022/02/05 08:40:02;;;;;;;4.00;3.70;;;6.00;99.20;;;;;;5049008;28;20193;-59
2022/02/05 08:42:28;;;;;;;5.38;4.05;;;5.90;99.60;;;;;;5048084;28;20183;-61
2022/02/05 08:44:53;;;;;;;3.97;3.67;;;5.90;99.50;;;;;;5047146;28;20652;-59
2022/02/05 08:47:19;;;;;;;4.03;3.63;;;5.90;99.80;;;;;;5049716;28;20178;-59
2022/02/05 08:49:45;;;;;;;5.30;3.50;;;5.80;98.90;;;;;;5050537;28;20189;-52
2022/02/05 08:52:11;;;;;;;6.03;3.90;;;5.90;99.70;;;;;;5041775;28;20241;-59
2022/02/05 08:54:38;;;;;;;4.57;3.60;;;6.00;99.20;;;;;;5046932;28;20174;-59
2022/02/05 08:57:05;;;;;;;3.78;3.35;;;5.90;98.90;;;;;;5047082;28;20190;-60
2022/02/05 08:59:43;;;;;;;5.40;3.50;;;5.90;99.50;;;;;;5046795;28;20546;-59
2022/02/05 09:05:07;;;;;;;4.10;3.72;;;5.90;99.10;;;;;;5046281;28;20217;-60
2022/02/05 09:07:33;;;;;;;3.72;3.33;;;6.00;99.10;;;;;;5048879;28;20553;-61
2022/02/05 09:15:07;;;;;;;4.43;4.13;;;6.20;98.60;;;;;;5052992;28;20206;-60
2022/02/05 09:17:33;;;;;;;6.88;3.50;;;6.40;98.40;;;;;;5063318;28;20537;-58
2022/02/05 09:19:58;;;;;;;3.97;3.50;;;6.40;98.70;;;;;;5040513;28;20190;-60
2022/02/05 09:22:27;;;;;;;5.30;3.50;;;6.50;97.80;;;;;;5058056;28;20182;-60
2022/02/05 09:24:58;;;;;;;4.20;3.80;;;6.60;96.90;;;;;;5042157;28;20192;-61
2022/02/05 09:27:25;;;;;;;5.75;3.88;;;6.40;97.00;;;;;;5067887;28;20193;-61
2022/02/05 09:30:01;;;;;;;6.40;3.92;;;6.50;97.70;;;;;;5056893;28;20223;-60
2022/02/05 09:32:27;;;;;;;4.60;3.65;;;6.70;97.30;;;;;;5069166;28;20198;-60
2022/02/05 09:34:53;;;;;;;4.72;4.13;;;6.70;96.50;;;;;;5048770;28;20692;-61
2022/02/05 09:37:19;;;;;;;4.53;4.10;;;6.80;96.20;;;;;;5064814;28;20179;-61
2022/02/05 09:39:45;;;;;;;4.03;3.53;;;7.00;96.60;;;;;;5069742;28;20418;-60
2022/02/05 09:42:12;;;;;;;4.17;3.83;;;7.10;96.00;;;;;;5053428;28;20263;-60
2022/02/05 09:44:38;;;;;;;7.10;3.53;;;6.80;95.70;;;;;;5051001;28;20421;-56
2022/02/05 09:47:04;;;;;;;4.63;3.50;;;6.80;96.00;;;;;;5063346;28;20898;-61
2022/02/05 09:49:29;;;;;;;3.40;3.10;;;7.00;96.70;;;;;;5050634;28;20645;-60
2022/02/05 09:52:07;;;;;;;4.50;4.10;;;7.50;95.40;;;;;;5056872;28;20282;-59
2022/02/05 09:54:34;;;;;;;5.03;3.80;;;8.20;94.30;;;;;;5070457;28;20956;-60
2022/02/05 09:57:00;;;;;;;3.90;3.60;;;8.60;92.90;;;;;;5068562;28;20458;-61
2022/02/05 09:59:25;;;;;;;3.77;3.30;;;9.30;90.70;;;;;;5063052;28;20814;-62
2022/02/05 10:02:34;;;;;;;4.37;3.97;;;9.70;87.40;;;;;;5050197;28;20187;-61
2022/02/05 10:05:15;;;;;;;3.67;3.37;;;9.10;89.30;;;;;;5049648;28;20681;-61
2022/02/05 10:08:06;;;;;;;4.27;3.87;;;9.00;89.00;;;;;;5049601;28;20781;-59
2022/02/05 10:10:38;;;;;;;5.97;4.10;;;8.90;89.60;;;;;;5047817;28;20464;-58
2022/02/05 10:13:11;;;;;;;4.80;3.83;;;9.20;89.00;;;;;;5046494;28;21197;-59
2022/02/05 10:15:39;;;;;;;5.70;4.30;;;8.80;87.60;;;;;;5045945;28;20539;-59
2022/02/05 10:18:06;;;;;;;5.73;3.93;;;8.40;90.00;;;;;;5049569;28;20417;-57
2022/02/05 10:20:31;;;;;;;4.90;4.27;;;8.20;90.30;;;;;;5047443;28;20451;-60
2022/02/05 10:23:10;;;;;;;4.20;3.90;;;8.10;91.00;;;;;;5059846;28;20918;-60
2022/02/05 10:25:36;;;;;;;3.40;3.10;;;7.80;91.50;;;;;;5041491;28;20205;-59
2022/02/05 10:28:11;;;;;;;4.20;3.80;;;7.70;92.00;;;;;;5049627;28;20429;-56
2022/02/05 10:30:43;;;;;;;6.77;4.53;;;7.70;91.90;;;;;;5050217;28;20459;-58
2022/02/05 10:33:19;;;;;;;5.13;3.80;;;7.60;92.20;;;;;;5048551;28;20490;-59
2022/02/05 10:36:22;;;;;;;5.60;4.47;;;7.60;92.20;;;;;;5048605;28;20432;-59
2022/02/05 10:39:10;;;;;;;4.47;4.00;;;7.90;92.30;;;;;;5044999;28;20420;-62
2022/02/05 10:44:18;;;;;;;6.73;4.10;;;7.80;91.20;;;;;;5066868;28;20771;-59
2022/02/05 10:46:44;;;;;;;4.37;3.97;;;7.70;91.70;;;;;;5060978;28;20298;-60
2022/02/05 10:49:11;;;;;;;4.03;3.73;;;7.60;92.20;;;;;;5050281;28;20986;-60
2022/02/05 10:51:46;;;;;;;4.17;3.77;;;7.60;91.80;;;;;;5048419;28;20918;-60
2022/02/05 10:54:26;;;;;;;3.67;3.37;;;7.70;92.30;;;;;;5044011;28;20464;-61
2022/02/05 10:57:03;;;;;;;4.27;3.50;;;7.90;92.10;;;;;;5049395;28;21168;-60
2022/02/05 11:05:34;;;;;;;5.67;3.60;;;8.20;90.00;;;;;;5053559;28;20509;-60
2022/02/05 11:08:00;;;;;;;3.90;3.60;;;8.40;90.00;;;;;;5044750;28;20506;-62
2022/02/05 11:10:36;;;;;;;3.70;3.40;;;8.90;88.10;;;;;;5049660;28;20419;-61
2022/02/05 11:13:16;;;;;;;4.80;3.70;;;9.00;85.50;;;;;;5044080;28;20435;-61
2022/02/05 11:16:12;;;;;;;3.47;3.17;;;9.00;85.80;;;;;;5047544;28;20508;-61
2022/02/05 11:18:57;;;;;;;3.70;3.30;;;8.70;85.30;;;;;;5031293;28;20464;-63
2022/02/05 11:21:28;;;;;;;4.00;3.67;;;8.60;87.20;;;;;;5047794;28;20558;-61
2022/02/05 11:24:01;;;;;;;4.57;3.50;;;8.60;86.50;;;;;;5039268;28;20838;-61
2022/02/05 11:26:27;;;;;;;3.73;3.43;;;8.40;88.50;;;;;;5038587;28;20445;-61
2022/02/05 11:29:04;;;;;;;6.80;3.83;;;8.20;87.70;;;;;;5047784;28;20911;-60
2022/02/05 11:31:37;;;;;;;5.20;4.00;;;8.10;88.50;;;;;;5044021;28;20459;-61
2022/02/05 11:34:38;;;;;;;5.90;3.83;;;7.90;90.20;;;;;;5048344;28;20431;-60
2022/02/05 11:37:10;;;;;;;4.23;3.80;;;7.80;90.90;;;;;;5050980;28;20439;-61
2022/02/05 11:39:48;;;;;;;4.33;3.60;;;7.70;90.50;;;;;;5053794;28;20521;-60
2022/02/05 11:42:24;;;;;;;3.83;3.50;;;7.70;90.60;;;;;;5051640;28;20456;-60
2022/02/05 11:44:50;;;;;;;4.17;3.50;;;7.70;91.50;;;;;;5050617;28;20424;-59
2022/02/05 11:47:21;;;;;;;6.20;3.33;;;7.70;91.20;;;;;;5048070;28;20459;-59
2022/02/05 11:49:53;;;;;;;3.43;3.10;;;8.00;90.50;;;;;;5040839;28;20179;-59
2022/02/05 11:52:37;;;;;;;4.00;3.60;;;8.50;84.50;;;;;;5049497;28;20803;-59
2022/02/05 11:55:08;;;;;;;3.93;3.20;;;9.00;82.80;;;;;;5046085;28;20408;-59
2022/02/05 11:57:43;;;;;;;3.57;2.90;;;9.80;80.90;;;;;;5043098;28;21070;-58
2022/02/05 12:00:11;;;;;;;4.10;3.60;;;10.30;75.00;;;;;;5043507;28;20488;-60
2022/02/05 12:02:38;;;;;;;3.93;3.47;;;10.60;73.20;;;;;;5047875;28;20427;-56
2022/02/05 12:05:15;;;;;;;5.70;3.30;;;11.00;70.80;;;;;;5047098;28;20785;-59
2022/02/05 12:08:21;;;;;;;3.90;3.70;;;11.20;64.30;;;;;;5044636;28;20965;-57
2022/02/05 12:10:52;;;;;;;5.33;3.57;;;11.40;63.60;;;;;;5046772;28;20467;-58
2022/02/05 12:13:28;;;;;;;3.70;3.40;;;11.20;61.60;;;;;;5043664;28;20439;-60
2022/02/05 12:15:59;;;;;;;3.37;3.13;;;11.20;60.30;;;;;;5046895;28;20417;-58
2022/02/05 12:18:28;;;;;;;3.83;3.43;;;11.60;59.20;;;;;;5046523;28;20769;-58
2022/02/05 12:20:57;;;;;;;3.83;3.47;;;11.50;58.70;;;;;;5047933;28;20413;-58
2022/02/05 12:23:53;;;;;;;3.10;2.83;;;11.50;58.00;;;;;;5042849;28;20755;-57
2022/02/05 12:26:25;;;;;;;3.70;3.40;;;11.50;57.00;;;;;;5045996;28;20921;-59
2022/02/05 12:28:56;;;;;;;4.63;3.40;;;11.00;58.80;;;;;;5047098;28;20428;-59
2022/02/05 12:31:25;;;;;;;4.83;3.30;;;10.90;58.40;;;;;;5044626;28;20456;-59
2022/02/05 12:33:53;;;;;;;4.03;3.37;;;10.80;58.10;;;;;;5045349;28;20424;-59
2022/02/05 12:36:34;;;;;;;3.50;3.30;;;10.70;57.90;;;;;;5048389;28;20558;-56
2022/02/05 12:39:02;;;;;;;3.70;3.40;;;10.80;58.50;;;;;;5053047;28;20844;-59
2022/02/05 12:41:30;;;;;;;3.27;3.07;;;10.80;58.90;;;;;;5059588;28;20470;-53
2022/02/05 12:44:01;;;;;;;3.67;3.40;;;10.70;59.30;;;;;;5050101;28;20912;-57
2022/02/05 12:46:52;;;;;;;3.80;2.90;;;10.50;58.80;;;;;;5050687;28;20953;-55
2022/02/05 12:49:23;;;;;;;3.60;3.37;;;10.00;60.40;;;;;;5066301;28;20435;-58
2022/02/05 12:51:50;;;;;;;5.07;4.00;;;10.10;60.30;;;;;;5051667;28;20460;-58
2022/02/05 12:54:19;;;;;;;3.20;3.00;;;10.60;59.70;;;;;;5052780;28;20455;-58
2022/02/05 12:56:47;;;;;;;4.23;3.43;;;10.60;59.40;;;;;;5059813;28;20565;-52
2022/02/05 12:59:17;;;;;;;3.20;2.83;;;10.70;59.80;;;;;;5055809;28;20436;-56
2022/02/05 13:01:54;;;;;;;3.70;3.30;;;11.10;59.20;;;;;;5071483;28;20501;-58
2022/02/05 13:04:33;;;;;;;4.10;3.00;;;11.70;57.20;;;;;;5051705;28;20935;-58
2022/02/05 13:07:04;;;;;;;4.20;3.73;;;11.90;55.70;;;;;;5037273;28;21170;-58
2022/02/05 13:09:34;;;;;;;3.70;3.40;;;11.50;55.90;;;;;;5050247;28;20428;-59
2022/02/05 13:12:03;;;;;;;3.53;3.27;;;11.60;56.70;;;;;;5061565;28;20518;-59
2022/02/05 13:14:39;;;;;;;3.10;2.90;;;11.70;55.20;;;;;;5051295;28;20429;-60
2022/02/05 13:17:11;;;;;;;3.73;3.40;;;11.00;55.20;;;;;;5052333;28;20447;-59
2022/02/05 13:20:16;;;;;;;5.40;4.17;;;10.40;57.40;;;;;;5050570;28;20425;-58
2022/02/05 13:36:08;;;;;;;4.87;3.57;;;10.10;58.80;;;;;;5048299;28;20436;-59
2022/02/05 13:41:09;;;;;;;3.90;3.60;;;9.30;61.50;;;;;;5054521;28;20456;-59
2022/02/05 13:43:45;;;;;;;3.97;3.40;;;9.00;62.30;;;;;;5056711;28;20428;-57
2022/02/05 13:46:13;;;;;;;3.30;3.10;;;8.90;64.00;;;;;;5053783;28;20902;-60
2022/02/05 13:48:40;;;;;;;2.93;2.83;;;9.00;64.40;;;;;;5047804;28;20474;-57
2022/02/05 13:51:06;;;;;;;3.50;3.20;;;9.40;63.60;;;;;;5049939;28;20525;-58
2022/02/05 13:53:32;;;;;;;4.10;3.33;;;9.30;62.30;;;;;;5049563;28;20542;-54
2022/02/05 13:56:04;;;;;;;3.47;3.17;;;9.40;63.60;;;;;;5048132;28;20931;-54
2022/02/05 13:58:37;;;;;;;3.67;3.43;;;9.50;63.90;;;;;;5049662;28;20421;-59
2022/02/05 14:01:03;;;;;;;4.00;3.80;;;9.40;62.90;;;;;;5049640;28;20417;-59
2022/02/05 14:03:32;;;;;;;3.73;3.43;;;9.30;64.20;;;;;;5050070;28;20437;-57
2022/02/05 14:06:09;;;;;;;3.77;3.47;;;9.30;63.40;;;;;;5048989;28;20452;-60
2022/02/05 14:08:51;;;;;;;3.73;3.37;;;9.00;64.20;;;;;;5049246;28;20890;-59
2022/02/05 14:11:28;;;;;;;4.07;3.77;;;9.00;65.70;;;;;;5047961;28;20958;-60
2022/02/05 14:13:59;;;;;;;4.63;4.30;;;8.90;66.80;;;;;;5048475;28;20405;-59
2022/02/05 14:16:29;;;;;;;3.30;3.00;;;8.80;67.30;;;;;;5047071;28;20441;-57
2022/02/05 14:18:58;;;;;;;3.90;3.60;;;8.60;66.00;;;;;;5049754;28;20421;-59
2022/02/05 14:21:38;;;;;;;5.33;3.60;;;8.30;66.70;;;;;;5050201;28;20421;-59
2022/02/05 14:24:06;;;;;;;3.53;3.33;;;8.20;67.70;;;;;;5047832;28;20476;-61
2022/02/05 14:26:42;;;;;;;4.83;4.03;;;8.20;68.50;;;;;;5050125;28;20396;-59
2022/02/05 14:29:08;;;;;;;4.97;3.50;;;8.10;69.70;;;;;;5048227;28;20412;-59
2022/02/05 14:31:43;;;;;;;3.73;3.47;;;8.10;68.40;;;;;;5049453;28;20456;-59
2022/02/05 14:34:43;;;;;;;3.90;3.60;;;8.10;70.00;;;;;;5047533;28;20178;-60
2022/02/05 14:42:37;;;;;;;3.87;3.50;;;8.20;67.30;;;;;;5052199;28;21098;-61
2022/02/05 14:45:03;;;;;;;3.87;3.57;;;8.30;67.90;;;;;;5048587;28;20436;-60
2022/02/05 14:47:29;;;;;;;4.50;4.10;;;8.70;67.70;;;;;;5046819;28;20440;-53
2022/02/05 14:49:55;;;;;;;6.93;6.33;;;9.00;66.80;;;;;;5044816;28;20455;-54
2022/02/05 14:52:21;;;;;;;3.70;3.40;;;9.10;66.20;;;;;;5057784;28;20488;-54
2022/02/05 14:54:46;;;;;;;3.30;3.10;;;9.10;65.60;;;;;;5054448;28;20192;-52
2022/02/05 14:57:13;;;;;;;4.00;3.57;;;9.10;65.70;;;;;;5058312;28;20425;-53
2022/02/05 14:59:39;;;;;;;3.67;3.37;;;8.90;64.80;;;;;;5045411;28;20232;-52
2022/02/05 15:02:08;;;;;;;3.93;3.17;;;8.90;64.40;;;;;;5046069;28;20965;-55
2022/02/05 15:04:34;;;;;;;5.20;3.20;;;8.80;64.80;;;;;;5065125;28;20423;-53
2022/02/05 15:06:59;;;;;;;2.90;2.70;;;8.50;63.80;;;;;;5048028;28;20801;-52
2022/02/05 15:09:25;;;;;;;3.50;3.30;;;8.40;66.00;;;;;;5054846;28;20666;-54
2022/02/05 15:11:50;;;;;;;3.57;3.37;;;8.40;65.70;;;;;;5049232;28;20206;-52
2022/02/05 15:14:17;;;;;;;3.27;3.07;;;8.20;65.70;;;;;;5047892;28;20236;-53
2022/02/05 15:16:43;;;;;;;3.50;3.00;;;8.20;65.30;;;;;;5053784;28;20206;-52
2022/02/05 15:19:08;;;;;;;3.30;3.10;;;8.10;65.90;;;;;;5058815;28;20448;-52
2022/02/05 15:21:37;;;;;;;4.33;3.30;;;8.10;65.20;;;;;;5048362;28;20183;-49
2022/02/05 15:24:04;;;;;;;3.10;2.90;;;7.90;65.00;;;;;;5048497;28;20216;-54
2022/02/05 15:26:33;;;;;;;3.43;3.13;;;7.80;65.70;;;;;;5047421;28;20486;-52
2022/02/05 15:28:59;;;;;;;3.20;3.00;;;7.80;65.60;;;;;;5048593;28;20424;-50
2022/02/05 15:31:24;;;;;;;3.20;2.90;;;7.60;65.70;;;;;;5050786;28;20459;-51
2022/02/05 15:33:55;;;;;;;5.20;4.77;;;7.60;66.00;;;;;;5044987;28;20433;-50
2022/02/05 15:36:43;;;;;;;3.90;3.60;;;7.50;66.90;;;;;;5049877;28;20205;-53
2022/02/05 15:39:24;;;;;;;3.67;3.47;;;7.50;68.30;;;;;;5044002;28;20806;-56
2022/02/05 15:44:34;;;;;;;4.03;3.50;;;7.40;70.80;;;;;;5064298;28;20486;-53
2022/02/05 15:46:59;;;;;;;3.20;3.00;;;7.40;74.00;;;;;;5048564;28;20428;-51
2022/02/05 15:49:26;;;;;;;3.20;2.90;;;7.40;75.40;;;;;;5053034;28;20444;-54
2022/02/05 15:51:52;;;;;;;4.20;3.90;;;7.40;75.80;;;;;;5046636;28;20256;-53
2022/02/05 15:54:18;;;;;;;4.50;4.10;;;7.30;76.20;;;;;;5045427;28;20257;-52
2022/02/05 15:57:07;;;;;;;3.63;3.40;;;7.30;77.30;;;;;;5060454;28;20545;-54
2022/02/05 16:02:14;;;;;;;3.73;3.50;;;7.20;79.10;;;;;;5048095;28;21272;-52
2022/02/05 16:04:39;;;;;;;3.50;3.30;;;7.20;79.70;;;;;;5049539;28;20506;-51